sensor_id;sensor_type;location;lat;lon;timestamp;P1;durP1;ratioP1;P2;durP2;ratioP2
27977;SDS011;15314;49.248;6.968;2023-04-24T00:00:08;6.07;;;5.63;;
27977;SDS011;15314;49.248;6.968;2023-04-24T00:01:09;5.75;;;5.30;;
27977;SDS011;15314;49.248;6.968;2023-04-24T00:02:10;6.28;;;5.72;;
27977;SDS011;15314;49.248;6.968;2023-04-24T00:03:11;5.85;;;5.45;;
27977;SDS011;15314;49.248;6.968;2023-04-24T00:04:13;6.53;;;5.93;;
27977;SDS011;15314;49.248;6.968;2023-04-24T00:05:16;6.15;;;5.75;;
27977;SDS011;15314;49.248;6.968;2023-04-24T00:06:17;6.55;;;6.05;;
27977;SDS011;15314;49.248;6.968;2023-04-24T00:07:18;5.90;;;5.40;;
27977;SDS011;15314;49.248;6.968;2023-04-24T00:08:20;6.25;;;5.65;;
27977;SDS011;15314;49.248;6.968;2023-04-24T00:09:21;5.97;;;5.57;;
27977;SDS011;15314;49.248;6.968;2023-04-24T00:10:21;6.70;;;6.05;;
27977;SDS011;15314;49.248;6.968;2023-04-24T00:11:22;7.00;;;5.97;;
27977;SDS011;15314;49.248;6.968;2023-04-24T00:12:23;7.40;;;6.65;;
27977;SDS011;15314;49.248;6.968;2023-04-24T00:13:24;6.03;;;5.43;;
27977;SDS011;15314;49.248;6.968;2023-04-24T00:14:25;6.75;;;6.15;;
27977;SDS011;15314;49.248;6.968;2023-04-24T00:15:25;6.72;;;6.22;;
27977;SDS011;15314;49.248;6.968;2023-04-24T00:16:26;8.05;;;6.32;;
27977;SDS011;15314;49.248;6.968;2023-04-24T00:17:27;6.47;;;5.82;;
27977;SDS011;15314;49.248;6.968;2023-04-24T00:18:28;6.32;;;5.72;;
27977;SDS011;15314;49.248;6.968;2023-04-24T00:19:29;6.63;;;6.03;;
27977;SDS011;15314;49.248;6.968;2023-04-24T00:20:30;6.85;;;6.25;;
27977;SDS011;15314;49.248;6.968;2023-04-24T00:21:32;6.32;;;5.85;;
27977;SDS011;15314;49.248;6.968;2023-04-24T00:22:33;6.03;;;5.53;;
27977;SDS011;15314;49.248;6.968;2023-04-24T00:23:34;7.43;;;6.22;;
27977;SDS011;15314;49.248;6.968;2023-04-24T00:24:34;6.78;;;6.18;;
27977;SDS011;15314;49.248;6.968;2023-04-24T00:25:35;8.10;;;5.90;;
27977;SDS011;15314;49.248;6.968;2023-04-24T00:26:36;6.25;;;5.78;;
27977;SDS011;15314;49.248;6.968;2023-04-24T00:27:36;6.50;;;5.90;;
27977;SDS011;15314;49.248;6.968;2023-04-24T00:28:38;5.45;;;5.22;;
27977;SDS011;15314;49.248;6.968;2023-04-24T00:29:39;5.85;;;5.35;;
27977;SDS011;15314;49.248;6.968;2023-04-24T00:30:40;6.47;;;5.95;;
27977;SDS011;15314;49.248;6.968;2023-04-24T00:31:40;5.85;;;5.65;;
27977;SDS011;15314;49.248;6.968;2023-04-24T00:32:41;5.55;;;5.25;;
27977;SDS011;15314;49.248;6.968;2023-04-24T00:33:42;5.80;;;5.40;;
27977;SDS011;15314;49.248;6.968;2023-04-24T00:34:42;6.10;;;5.60;;
27977;SDS011;15314;49.248;6.968;2023-04-24T00:35:43;6.07;;;5.60;;
27977;SDS011;15314;49.248;6.968;2023-04-24T00:36:44;5.75;;;5.45;;
27977;SDS011;15314;49.248;6.968;2023-04-24T00:37:45;5.72;;;5.40;;
27977;SDS011;15314;49.248;6.968;2023-04-24T00:38:46;5.82;;;5.32;;
27977;SDS011;15314;49.248;6.968;2023-04-24T00:39:46;6.25;;;5.80;;
27977;SDS011;15314;49.248;6.968;2023-04-24T00:40:47;5.82;;;5.53;;
27977;SDS011;15314;49.248;6.968;2023-04-24T00:41:50;6.38;;;5.93;;
27977;SDS011;15314;49.248;6.968;2023-04-24T00:42:51;6.22;;;5.72;;
27977;SDS011;15314;49.248;6.968;2023-04-24T00:43:52;6.30;;;5.90;;
27977;SDS011;15314;49.248;6.968;2023-04-24T00:44:53;6.22;;;5.72;;
27977;SDS011;15314;49.248;6.968;2023-04-24T00:45:54;6.03;;;5.72;;
27977;SDS011;15314;49.248;6.968;2023-04-24T00:46:55;5.90;;;5.60;;
27977;SDS011;15314;49.248;6.968;2023-04-24T00:47:55;5.80;;;5.50;;
27977;SDS011;15314;49.248;6.968;2023-04-24T00:48:57;6.13;;;5.72;;
27977;SDS011;15314;49.248;6.968;2023-04-24T00:50:03;7.10;;;6.50;;
27977;SDS011;15314;49.248;6.968;2023-04-24T00:51:05;5.68;;;5.43;;
27977;SDS011;15314;49.248;6.968;2023-04-24T00:52:06;5.80;;;5.43;;
27977;SDS011;15314;49.248;6.968;2023-04-24T00:53:08;6.15;;;5.90;;
27977;SDS011;15314;49.248;6.968;2023-04-24T00:54:09;6.22;;;5.93;;
27977;SDS011;15314;49.248;6.968;2023-04-24T00:55:10;6.57;;;6.07;;
27977;SDS011;15314;49.248;6.968;2023-04-24T00:56:10;5.78;;;5.47;;
27977;SDS011;15314;49.248;6.968;2023-04-24T00:57:12;6.43;;;6.13;;
27977;SDS011;15314;49.248;6.968;2023-04-24T00:58:15;5.40;;;5.10;;
27977;SDS011;15314;49.248;6.968;2023-04-24T00:59:16;5.80;;;5.50;;
27977;SDS011;15314;49.248;6.968;2023-04-24T01:00:17;6.35;;;5.95;;
27977;SDS011;15314;49.248;6.968;2023-04-24T01:01:19;6.35;;;5.95;;
27977;SDS011;15314;49.248;6.968;2023-04-24T01:02:21;5.90;;;5.70;;
27977;SDS011;15314;49.248;6.968;2023-04-24T01:03:25;6.70;;;5.93;;
27977;SDS011;15314;49.248;6.968;2023-04-24T01:04:28;6.32;;;5.75;;
27977;SDS011;15314;49.248;6.968;2023-04-24T01:05:29;5.90;;;5.63;;
27977;SDS011;15314;49.248;6.968;2023-04-24T01:06:30;5.88;;;5.45;;
27977;SDS011;15314;49.248;6.968;2023-04-24T01:07:31;6.43;;;6.03;;
27977;SDS011;15314;49.248;6.968;2023-04-24T01:08:32;6.30;;;6.00;;
27977;SDS011;15314;49.248;6.968;2023-04-24T01:09:34;6.20;;;5.85;;
27977;SDS011;15314;49.248;6.968;2023-04-24T01:10:40;6.20;;;5.90;;
27977;SDS011;15314;49.248;6.968;2023-04-24T01:11:41;6.47;;;6.18;;
27977;SDS011;15314;49.248;6.968;2023-04-24T01:12:43;6.35;;;6.05;;
27977;SDS011;15314;49.248;6.968;2023-04-24T01:13:44;6.70;;;6.35;;
27977;SDS011;15314;49.248;6.968;2023-04-24T01:14:46;6.82;;;6.43;;
27977;SDS011;15314;49.248;6.968;2023-04-24T01:15:46;6.80;;;6.30;;
27977;SDS011;15314;49.248;6.968;2023-04-24T01:16:47;6.68;;;6.38;;
27977;SDS011;15314;49.248;6.968;2023-04-24T01:17:48;7.25;;;6.47;;
27977;SDS011;15314;49.248;6.968;2023-04-24T01:18:49;6.40;;;6.10;;
27977;SDS011;15314;49.248;6.968;2023-04-24T01:19:49;7.05;;;6.55;;
27977;SDS011;15314;49.248;6.968;2023-04-24T01:20:54;6.60;;;6.30;;
27977;SDS011;15314;49.248;6.968;2023-04-24T01:21:58;6.93;;;6.38;;
27977;SDS011;15314;49.248;6.968;2023-04-24T01:23:02;6.40;;;5.97;;
27977;SDS011;15314;49.248;6.968;2023-04-24T01:24:04;6.78;;;6.47;;
27977;SDS011;15314;49.248;6.968;2023-04-24T01:25:05;7.28;;;6.78;;
27977;SDS011;15314;49.248;6.968;2023-04-24T01:26:06;7.28;;;6.88;;
27977;SDS011;15314;49.248;6.968;2023-04-24T01:27:08;6.93;;;6.63;;
27977;SDS011;15314;49.248;6.968;2023-04-24T01:28:10;6.60;;;6.20;;
27977;SDS011;15314;49.248;6.968;2023-04-24T01:29:11;8.13;;;6.55;;
27977;SDS011;15314;49.248;6.968;2023-04-24T01:30:12;6.80;;;6.32;;
27977;SDS011;15314;49.248;6.968;2023-04-24T01:31:13;7.32;;;6.78;;
27977;SDS011;15314;49.248;6.968;2023-04-24T01:32:15;7.57;;;6.97;;
27977;SDS011;15314;49.248;6.968;2023-04-24T01:33:16;7.43;;;6.82;;
27977;SDS011;15314;49.248;6.968;2023-04-24T01:34:17;6.95;;;6.55;;
27977;SDS011;15314;49.248;6.968;2023-04-24T01:35:19;7.13;;;6.63;;
27977;SDS011;15314;49.248;6.968;2023-04-24T01:36:20;7.32;;;6.93;;
27977;SDS011;15314;49.248;6.968;2023-04-24T01:37:21;7.53;;;7.22;;
27977;SDS011;15314;49.248;6.968;2023-04-24T01:38:22;6.88;;;6.57;;
27977;SDS011;15314;49.248;6.968;2023-04-24T01:39:23;7.30;;;6.90;;
27977;SDS011;15314;49.248;6.968;2023-04-24T01:40:25;6.82;;;6.43;;
27977;SDS011;15314;49.248;6.968;2023-04-24T01:41:26;7.20;;;6.80;;
27977;SDS011;15314;49.248;6.968;2023-04-24T01:42:27;7.82;;;7.38;;
27977;SDS011;15314;49.248;6.968;2023-04-24T01:43:28;7.53;;;6.93;;
27977;SDS011;15314;49.248;6.968;2023-04-24T01:44:29;7.10;;;6.70;;
27977;SDS011;15314;49.248;6.968;2023-04-24T01:45:30;7.18;;;6.78;;
27977;SDS011;15314;49.248;6.968;2023-04-24T01:46:31;6.40;;;6.00;;
27977;SDS011;15314;49.248;6.968;2023-04-24T01:47:34;7.70;;;7.30;;
27977;SDS011;15314;49.248;6.968;2023-04-24T01:48:35;6.90;;;6.40;;
27977;SDS011;15314;49.248;6.968;2023-04-24T01:49:37;7.05;;;6.65;;
27977;SDS011;15314;49.248;6.968;2023-04-24T01:50:38;7.28;;;6.97;;
27977;SDS011;15314;49.248;6.968;2023-04-24T01:51:39;7.25;;;6.90;;
27977;SDS011;15314;49.248;6.968;2023-04-24T01:52:40;7.13;;;6.63;;
27977;SDS011;15314;49.248;6.968;2023-04-24T01:53:41;7.20;;;6.80;;
27977;SDS011;15314;49.248;6.968;2023-04-24T01:54:41;7.22;;;6.82;;
27977;SDS011;15314;49.248;6.968;2023-04-24T01:55:42;6.95;;;6.65;;
27977;SDS011;15314;49.248;6.968;2023-04-24T01:56:43;6.47;;;6.18;;
27977;SDS011;15314;49.248;6.968;2023-04-24T01:57:45;7.30;;;6.80;;
27977;SDS011;15314;49.248;6.968;2023-04-24T01:58:45;7.35;;;6.95;;
27977;SDS011;15314;49.248;6.968;2023-04-24T01:59:46;7.30;;;6.97;;
27977;SDS011;15314;49.248;6.968;2023-04-24T02:00:47;7.28;;;6.88;;
27977;SDS011;15314;49.248;6.968;2023-04-24T02:01:48;6.93;;;6.53;;
27977;SDS011;15314;49.248;6.968;2023-04-24T02:02:48;7.50;;;7.00;;
27977;SDS011;15314;49.248;6.968;2023-04-24T02:03:49;7.53;;;7.13;;
27977;SDS011;15314;49.248;6.968;2023-04-24T02:04:50;7.35;;;6.88;;
27977;SDS011;15314;49.248;6.968;2023-04-24T02:05:50;6.97;;;6.68;;
27977;SDS011;15314;49.248;6.968;2023-04-24T02:06:51;7.15;;;6.75;;
27977;SDS011;15314;49.248;6.968;2023-04-24T02:07:52;6.80;;;6.43;;
27977;SDS011;15314;49.248;6.968;2023-04-24T02:08:53;7.18;;;6.78;;
27977;SDS011;15314;49.248;6.968;2023-04-24T02:09:53;6.80;;;6.30;;
27977;SDS011;15314;49.248;6.968;2023-04-24T02:10:55;7.35;;;6.88;;
27977;SDS011;15314;49.248;6.968;2023-04-24T02:11:56;7.03;;;6.63;;
27977;SDS011;15314;49.248;6.968;2023-04-24T02:12:57;6.57;;;6.28;;
27977;SDS011;15314;49.248;6.968;2023-04-24T02:13:59;6.53;;;6.22;;
27977;SDS011;15314;49.248;6.968;2023-04-24T02:15:00;7.07;;;6.50;;
27977;SDS011;15314;49.248;6.968;2023-04-24T02:16:01;7.15;;;6.70;;
27977;SDS011;15314;49.248;6.968;2023-04-24T02:17:01;6.65;;;6.35;;
27977;SDS011;15314;49.248;6.968;2023-04-24T02:18:02;7.55;;;7.05;;
27977;SDS011;15314;49.248;6.968;2023-04-24T02:19:03;7.03;;;6.55;;
27977;SDS011;15314;49.248;6.968;2023-04-24T02:20:05;6.82;;;6.43;;
27977;SDS011;15314;49.248;6.968;2023-04-24T02:21:06;6.97;;;6.57;;
27977;SDS011;15314;49.248;6.968;2023-04-24T02:22:07;6.97;;;6.57;;
27977;SDS011;15314;49.248;6.968;2023-04-24T02:23:08;6.95;;;6.55;;
27977;SDS011;15314;49.248;6.968;2023-04-24T02:24:08;7.15;;;6.65;;
27977;SDS011;15314;49.248;6.968;2023-04-24T02:25:09;7.45;;;7.03;;
27977;SDS011;15314;49.248;6.968;2023-04-24T02:26:10;8.25;;;7.53;;
27977;SDS011;15314;49.248;6.968;2023-04-24T02:27:11;7.57;;;7.18;;
27977;SDS011;15314;49.248;6.968;2023-04-24T02:28:11;7.10;;;6.70;;
27977;SDS011;15314;49.248;6.968;2023-04-24T02:29:12;7.82;;;7.32;;
27977;SDS011;15314;49.248;6.968;2023-04-24T02:30:13;8.20;;;7.40;;
27977;SDS011;15314;49.248;6.968;2023-04-24T02:31:14;6.90;;;6.60;;
27977;SDS011;15314;49.248;6.968;2023-04-24T02:32:15;8.50;;;8.00;;
27977;SDS011;15314;49.248;6.968;2023-04-24T02:33:16;8.02;;;7.57;;
27977;SDS011;15314;49.248;6.968;2023-04-24T02:34:16;7.80;;;7.40;;
27977;SDS011;15314;49.248;6.968;2023-04-24T02:35:17;7.63;;;7.07;;
27977;SDS011;15314;49.248;6.968;2023-04-24T02:36:18;8.00;;;7.43;;
27977;SDS011;15314;49.248;6.968;2023-04-24T02:37:18;8.02;;;7.35;;
27977;SDS011;15314;49.248;6.968;2023-04-24T02:38:19;8.50;;;7.90;;
27977;SDS011;15314;49.248;6.968;2023-04-24T02:39:20;8.38;;;7.88;;
27977;SDS011;15314;49.248;6.968;2023-04-24T02:40:21;8.35;;;7.75;;
27977;SDS011;15314;49.248;6.968;2023-04-24T02:41:21;9.10;;;8.25;;
27977;SDS011;15314;49.248;6.968;2023-04-24T02:42:22;8.80;;;8.20;;
27977;SDS011;15314;49.248;6.968;2023-04-24T02:43:23;8.48;;;7.80;;
27977;SDS011;15314;49.248;6.968;2023-04-24T02:44:23;8.07;;;7.50;;
27977;SDS011;15314;49.248;6.968;2023-04-24T02:45:24;8.43;;;7.93;;
27977;SDS011;15314;49.248;6.968;2023-04-24T02:46:25;8.82;;;8.32;;
27977;SDS011;15314;49.248;6.968;2023-04-24T02:47:26;8.43;;;7.90;;
27977;SDS011;15314;49.248;6.968;2023-04-24T02:48:27;9.40;;;8.70;;
27977;SDS011;15314;49.248;6.968;2023-04-24T02:49:27;8.60;;;8.10;;
27977;SDS011;15314;49.248;6.968;2023-04-24T02:50:28;8.80;;;8.10;;
27977;SDS011;15314;49.248;6.968;2023-04-24T02:51:29;9.00;;;8.40;;
27977;SDS011;15314;49.248;6.968;2023-04-24T02:52:30;9.15;;;8.45;;
27977;SDS011;15314;49.248;6.968;2023-04-24T02:53:30;9.60;;;8.80;;
27977;SDS011;15314;49.248;6.968;2023-04-24T02:54:31;9.27;;;8.43;;
27977;SDS011;15314;49.248;6.968;2023-04-24T02:55:32;9.25;;;8.63;;
27977;SDS011;15314;49.248;6.968;2023-04-24T02:56:32;9.85;;;8.98;;
27977;SDS011;15314;49.248;6.968;2023-04-24T02:57:34;9.98;;;9.15;;
27977;SDS011;15314;49.248;6.968;2023-04-24T02:58:34;10.25;;;9.45;;
27977;SDS011;15314;49.248;6.968;2023-04-24T02:59:35;11.02;;;10.07;;
27977;SDS011;15314;49.248;6.968;2023-04-24T03:00:36;10.10;;;9.23;;
27977;SDS011;15314;49.248;6.968;2023-04-24T03:01:36;10.07;;;9.38;;
27977;SDS011;15314;49.248;6.968;2023-04-24T03:02:37;9.60;;;8.93;;
27977;SDS011;15314;49.248;6.968;2023-04-24T03:03:38;9.55;;;8.90;;
27977;SDS011;15314;49.248;6.968;2023-04-24T03:04:39;10.65;;;9.85;;
27977;SDS011;15314;49.248;6.968;2023-04-24T03:05:40;10.40;;;9.60;;
27977;SDS011;15314;49.248;6.968;2023-04-24T03:06:41;9.95;;;9.13;;
27977;SDS011;15314;49.248;6.968;2023-04-24T03:07:41;9.95;;;9.10;;
27977;SDS011;15314;49.248;6.968;2023-04-24T03:08:42;10.43;;;9.63;;
27977;SDS011;15314;49.248;6.968;2023-04-24T03:09:43;10.35;;;9.52;;
27977;SDS011;15314;49.248;6.968;2023-04-24T03:10:43;9.70;;;8.98;;
27977;SDS011;15314;49.248;6.968;2023-04-24T03:11:44;9.57;;;8.88;;
27977;SDS011;15314;49.248;6.968;2023-04-24T03:12:45;9.40;;;8.77;;
27977;SDS011;15314;49.248;6.968;2023-04-24T03:13:45;9.82;;;9.00;;
27977;SDS011;15314;49.248;6.968;2023-04-24T03:14:46;10.55;;;9.85;;
27977;SDS011;15314;49.248;6.968;2023-04-24T03:15:46;10.10;;;9.18;;
27977;SDS011;15314;49.248;6.968;2023-04-24T03:16:47;11.52;;;10.32;;
27977;SDS011;15314;49.248;6.968;2023-04-24T03:17:48;12.10;;;9.02;;
27977;SDS011;15314;49.248;6.968;2023-04-24T03:18:49;10.43;;;9.52;;
27977;SDS011;15314;49.248;6.968;2023-04-24T03:19:49;10.15;;;9.32;;
27977;SDS011;15314;49.248;6.968;2023-04-24T03:20:50;10.25;;;9.57;;
27977;SDS011;15314;49.248;6.968;2023-04-24T03:21:51;10.20;;;9.40;;
27977;SDS011;15314;49.248;6.968;2023-04-24T03:22:52;10.48;;;9.68;;
27977;SDS011;15314;49.248;6.968;2023-04-24T03:23:52;10.15;;;9.43;;
27977;SDS011;15314;49.248;6.968;2023-04-24T03:24:53;10.77;;;9.88;;
27977;SDS011;15314;49.248;6.968;2023-04-24T03:25:56;10.35;;;9.45;;
27977;SDS011;15314;49.248;6.968;2023-04-24T03:26:57;10.32;;;9.50;;
27977;SDS011;15314;49.248;6.968;2023-04-24T03:27:58;12.65;;;10.18;;
27977;SDS011;15314;49.248;6.968;2023-04-24T03:28:58;11.10;;;9.85;;
27977;SDS011;15314;49.248;6.968;2023-04-24T03:29:59;10.73;;;9.82;;
27977;SDS011;15314;49.248;6.968;2023-04-24T03:31:00;9.65;;;8.90;;
27977;SDS011;15314;49.248;6.968;2023-04-24T03:32:02;10.25;;;9.57;;
27977;SDS011;15314;49.248;6.968;2023-04-24T03:33:03;9.85;;;9.00;;
27977;SDS011;15314;49.248;6.968;2023-04-24T03:34:04;10.48;;;9.73;;
27977;SDS011;15314;49.248;6.968;2023-04-24T03:35:05;10.57;;;9.63;;
27977;SDS011;15314;49.248;6.968;2023-04-24T03:36:08;9.88;;;9.07;;
27977;SDS011;15314;49.248;6.968;2023-04-24T03:37:08;10.05;;;9.25;;
27977;SDS011;15314;49.248;6.968;2023-04-24T03:38:09;10.38;;;9.57;;
27977;SDS011;15314;49.248;6.968;2023-04-24T03:39:10;10.25;;;9.45;;
27977;SDS011;15314;49.248;6.968;2023-04-24T03:40:11;9.95;;;9.25;;
27977;SDS011;15314;49.248;6.968;2023-04-24T03:41:12;9.90;;;9.00;;
27977;SDS011;15314;49.248;6.968;2023-04-24T03:42:13;11.00;;;10.07;;
27977;SDS011;15314;49.248;6.968;2023-04-24T03:43:13;10.23;;;9.50;;
27977;SDS011;15314;49.248;6.968;2023-04-24T03:44:14;10.52;;;9.73;;
27977;SDS011;15314;49.248;6.968;2023-04-24T03:45:15;11.18;;;10.27;;
27977;SDS011;15314;49.248;6.968;2023-04-24T03:46:16;10.43;;;9.52;;
27977;SDS011;15314;49.248;6.968;2023-04-24T03:47:16;10.15;;;9.35;;
27977;SDS011;15314;49.248;6.968;2023-04-24T03:48:17;10.50;;;9.57;;
27977;SDS011;15314;49.248;6.968;2023-04-24T03:49:18;10.95;;;10.18;;
27977;SDS011;15314;49.248;6.968;2023-04-24T03:50:18;11.13;;;10.32;;
27977;SDS011;15314;49.248;6.968;2023-04-24T03:51:20;10.70;;;9.93;;
27977;SDS011;15314;49.248;6.968;2023-04-24T03:52:21;10.93;;;10.02;;
27977;SDS011;15314;49.248;6.968;2023-04-24T03:53:22;9.68;;;8.98;;
27977;SDS011;15314;49.248;6.968;2023-04-24T03:54:23;9.50;;;8.70;;
27977;SDS011;15314;49.248;6.968;2023-04-24T03:55:23;10.77;;;9.73;;
27977;SDS011;15314;49.248;6.968;2023-04-24T03:56:24;9.52;;;8.90;;
27977;SDS011;15314;49.248;6.968;2023-04-24T03:57:25;10.23;;;9.38;;
27977;SDS011;15314;49.248;6.968;2023-04-24T03:58:26;9.75;;;8.85;;
27977;SDS011;15314;49.248;6.968;2023-04-24T03:59:26;10.13;;;9.48;;
27977;SDS011;15314;49.248;6.968;2023-04-24T04:00:27;10.32;;;9.65;;
27977;SDS011;15314;49.248;6.968;2023-04-24T04:01:28;11.20;;;10.02;;
27977;SDS011;15314;49.248;6.968;2023-04-24T04:02:29;10.77;;;9.70;;
27977;SDS011;15314;49.248;6.968;2023-04-24T04:03:29;10.82;;;9.88;;
27977;SDS011;15314;49.248;6.968;2023-04-24T04:04:30;10.60;;;9.60;;
27977;SDS011;15314;49.248;6.968;2023-04-24T04:05:31;10.23;;;9.57;;
27977;SDS011;15314;49.248;6.968;2023-04-24T04:06:32;10.73;;;9.93;;
27977;SDS011;15314;49.248;6.968;2023-04-24T04:07:33;10.15;;;9.30;;
27977;SDS011;15314;49.248;6.968;2023-04-24T04:08:33;10.35;;;9.65;;
27977;SDS011;15314;49.248;6.968;2023-04-24T04:09:34;10.80;;;10.07;;
27977;SDS011;15314;49.248;6.968;2023-04-24T04:10:35;10.48;;;9.57;;
27977;SDS011;15314;49.248;6.968;2023-04-24T04:11:36;10.18;;;9.38;;
27977;SDS011;15314;49.248;6.968;2023-04-24T04:12:37;10.95;;;10.20;;
27977;SDS011;15314;49.248;6.968;2023-04-24T04:13:38;11.43;;;10.35;;
27977;SDS011;15314;49.248;6.968;2023-04-24T04:14:38;11.18;;;10.18;;
27977;SDS011;15314;49.248;6.968;2023-04-24T04:15:40;9.98;;;9.18;;
27977;SDS011;15314;49.248;6.968;2023-04-24T04:16:40;10.85;;;9.93;;
27977;SDS011;15314;49.248;6.968;2023-04-24T04:17:42;10.65;;;9.68;;
27977;SDS011;15314;49.248;6.968;2023-04-24T04:18:43;10.65;;;9.60;;
27977;SDS011;15314;49.248;6.968;2023-04-24T04:19:43;9.88;;;9.18;;
27977;SDS011;15314;49.248;6.968;2023-04-24T04:20:44;10.07;;;9.23;;
27977;SDS011;15314;49.248;6.968;2023-04-24T04:21:45;10.63;;;9.93;;
27977;SDS011;15314;49.248;6.968;2023-04-24T04:22:46;10.30;;;9.52;;
27977;SDS011;15314;49.248;6.968;2023-04-24T04:23:46;10.82;;;10.02;;
27977;SDS011;15314;49.248;6.968;2023-04-24T04:24:48;11.32;;;10.32;;
27977;SDS011;15314;49.248;6.968;2023-04-24T04:25:51;10.63;;;9.90;;
27977;SDS011;15314;49.248;6.968;2023-04-24T04:26:51;12.20;;;10.32;;
27977;SDS011;15314;49.248;6.968;2023-04-24T04:27:52;10.10;;;9.30;;
27977;SDS011;15314;49.248;6.968;2023-04-24T04:28:53;10.43;;;9.63;;
27977;SDS011;15314;49.248;6.968;2023-04-24T04:29:54;10.55;;;9.65;;
27977;SDS011;15314;49.248;6.968;2023-04-24T04:30:56;10.32;;;9.45;;
27977;SDS011;15314;49.248;6.968;2023-04-24T04:31:57;11.07;;;9.98;;
27977;SDS011;15314;49.248;6.968;2023-04-24T04:32:58;9.88;;;9.23;;
27977;SDS011;15314;49.248;6.968;2023-04-24T04:33:59;10.93;;;10.07;;
27977;SDS011;15314;49.248;6.968;2023-04-24T04:35:01;11.15;;;10.23;;
27977;SDS011;15314;49.248;6.968;2023-04-24T04:36:03;11.10;;;10.30;;
27977;SDS011;15314;49.248;6.968;2023-04-24T04:37:04;11.02;;;10.23;;
27977;SDS011;15314;49.248;6.968;2023-04-24T04:38:05;11.20;;;10.30;;
27977;SDS011;15314;49.248;6.968;2023-04-24T04:39:08;10.82;;;9.93;;
27977;SDS011;15314;49.248;6.968;2023-04-24T04:40:09;10.70;;;9.68;;
27977;SDS011;15314;49.248;6.968;2023-04-24T04:41:11;11.38;;;10.48;;
27977;SDS011;15314;49.248;6.968;2023-04-24T04:42:12;10.63;;;9.85;;
27977;SDS011;15314;49.248;6.968;2023-04-24T04:43:13;13.60;;;11.38;;
27977;SDS011;15314;49.248;6.968;2023-04-24T04:44:16;10.50;;;9.80;;
27977;SDS011;15314;49.248;6.968;2023-04-24T04:45:16;10.98;;;9.95;;
27977;SDS011;15314;49.248;6.968;2023-04-24T04:46:18;10.95;;;10.05;;
27977;SDS011;15314;49.248;6.968;2023-04-24T04:47:20;10.68;;;9.88;;
27977;SDS011;15314;49.248;6.968;2023-04-24T04:48:24;11.55;;;10.38;;
27977;SDS011;15314;49.248;6.968;2023-04-24T04:49:25;9.57;;;8.95;;
27977;SDS011;15314;49.248;6.968;2023-04-24T04:50:28;11.10;;;10.27;;
27977;SDS011;15314;49.248;6.968;2023-04-24T04:51:29;10.05;;;9.43;;
27977;SDS011;15314;49.248;6.968;2023-04-24T04:52:31;11.27;;;10.15;;
27977;SDS011;15314;49.248;6.968;2023-04-24T04:53:31;11.32;;;10.32;;
27977;SDS011;15314;49.248;6.968;2023-04-24T04:54:32;10.88;;;10.07;;
27977;SDS011;15314;49.248;6.968;2023-04-24T04:55:33;11.50;;;10.57;;
27977;SDS011;15314;49.248;6.968;2023-04-24T04:56:33;11.52;;;10.73;;
27977;SDS011;15314;49.248;6.968;2023-04-24T04:57:34;10.98;;;10.18;;
27977;SDS011;15314;49.248;6.968;2023-04-24T04:58:35;10.98;;;10.18;;
27977;SDS011;15314;49.248;6.968;2023-04-24T04:59:36;10.98;;;10.07;;
27977;SDS011;15314;49.248;6.968;2023-04-24T05:00:37;11.55;;;10.75;;
27977;SDS011;15314;49.248;6.968;2023-04-24T05:01:38;10.82;;;10.02;;
27977;SDS011;15314;49.248;6.968;2023-04-24T05:02:38;10.85;;;9.98;;
27977;SDS011;15314;49.248;6.968;2023-04-24T05:03:39;10.88;;;10.07;;
27977;SDS011;15314;49.248;6.968;2023-04-24T05:04:40;10.88;;;10.07;;
27977;SDS011;15314;49.248;6.968;2023-04-24T05:05:41;10.45;;;9.65;;
27977;SDS011;15314;49.248;6.968;2023-04-24T05:06:41;11.68;;;10.77;;
27977;SDS011;15314;49.248;6.968;2023-04-24T05:07:43;10.55;;;9.80;;
27977;SDS011;15314;49.248;6.968;2023-04-24T05:08:44;10.80;;;10.07;;
27977;SDS011;15314;49.248;6.968;2023-04-24T05:09:44;11.35;;;10.50;;
27977;SDS011;15314;49.248;6.968;2023-04-24T05:10:45;9.85;;;9.18;;
27977;SDS011;15314;49.248;6.968;2023-04-24T05:11:46;10.45;;;9.85;;
27977;SDS011;15314;49.248;6.968;2023-04-24T05:12:46;10.30;;;9.60;;
27977;SDS011;15314;49.248;6.968;2023-04-24T05:13:47;11.70;;;10.77;;
27977;SDS011;15314;49.248;6.968;2023-04-24T05:14:48;10.38;;;9.68;;
27977;SDS011;15314;49.248;6.968;2023-04-24T05:15:48;10.40;;;9.65;;
27977;SDS011;15314;49.248;6.968;2023-04-24T05:16:49;10.82;;;10.15;;
27977;SDS011;15314;49.248;6.968;2023-04-24T05:17:50;10.93;;;9.93;;
27977;SDS011;15314;49.248;6.968;2023-04-24T05:18:50;10.50;;;9.70;;
27977;SDS011;15314;49.248;6.968;2023-04-24T05:19:51;9.82;;;9.23;;
27977;SDS011;15314;49.248;6.968;2023-04-24T05:20:52;10.07;;;9.38;;
27977;SDS011;15314;49.248;6.968;2023-04-24T05:21:52;10.43;;;9.43;;
27977;SDS011;15314;49.248;6.968;2023-04-24T05:22:53;9.95;;;9.40;;
27977;SDS011;15314;49.248;6.968;2023-04-24T05:23:54;10.57;;;9.77;;
27977;SDS011;15314;49.248;6.968;2023-04-24T05:24:55;11.02;;;9.95;;
27977;SDS011;15314;49.248;6.968;2023-04-24T05:25:55;11.13;;;10.10;;
27977;SDS011;15314;49.248;6.968;2023-04-24T05:26:56;10.05;;;9.35;;
27977;SDS011;15314;49.248;6.968;2023-04-24T05:27:58;10.25;;;9.65;;
27977;SDS011;15314;49.248;6.968;2023-04-24T05:28:59;10.07;;;9.38;;
27977;SDS011;15314;49.248;6.968;2023-04-24T05:30:00;10.23;;;9.48;;
27977;SDS011;15314;49.248;6.968;2023-04-24T05:31:00;10.40;;;9.63;;
27977;SDS011;15314;49.248;6.968;2023-04-24T05:32:02;10.70;;;9.90;;
27977;SDS011;15314;49.248;6.968;2023-04-24T05:33:03;10.80;;;10.05;;
27977;SDS011;15314;49.248;6.968;2023-04-24T05:34:03;10.50;;;9.52;;
27977;SDS011;15314;49.248;6.968;2023-04-24T05:35:05;11.05;;;10.07;;
27977;SDS011;15314;49.248;6.968;2023-04-24T05:36:06;10.40;;;9.60;;
27977;SDS011;15314;49.248;6.968;2023-04-24T05:37:07;10.57;;;9.88;;
27977;SDS011;15314;49.248;6.968;2023-04-24T05:38:11;11.13;;;10.23;;
27977;SDS011;15314;49.248;6.968;2023-04-24T05:39:12;11.23;;;10.20;;
27977;SDS011;15314;49.248;6.968;2023-04-24T05:40:13;10.57;;;9.80;;
27977;SDS011;15314;49.248;6.968;2023-04-24T05:41:14;10.40;;;9.60;;
27977;SDS011;15314;49.248;6.968;2023-04-24T05:42:15;10.95;;;10.07;;
27977;SDS011;15314;49.248;6.968;2023-04-24T05:43:15;10.52;;;9.85;;
27977;SDS011;15314;49.248;6.968;2023-04-24T05:44:16;10.43;;;9.82;;
27977;SDS011;15314;49.248;6.968;2023-04-24T05:45:17;10.73;;;9.93;;
27977;SDS011;15314;49.248;6.968;2023-04-24T05:46:17;10.43;;;9.73;;
27977;SDS011;15314;49.248;6.968;2023-04-24T05:47:18;11.18;;;10.20;;
27977;SDS011;15314;49.248;6.968;2023-04-24T05:48:19;11.00;;;10.32;;
27977;SDS011;15314;49.248;6.968;2023-04-24T05:49:20;11.45;;;10.10;;
27977;SDS011;15314;49.248;6.968;2023-04-24T05:50:20;10.65;;;9.85;;
27977;SDS011;15314;49.248;6.968;2023-04-24T05:51:21;11.10;;;10.20;;
27977;SDS011;15314;49.248;6.968;2023-04-24T05:52:22;11.00;;;10.20;;
27977;SDS011;15314;49.248;6.968;2023-04-24T05:53:22;11.13;;;10.32;;
27977;SDS011;15314;49.248;6.968;2023-04-24T05:54:23;12.38;;;11.00;;
27977;SDS011;15314;49.248;6.968;2023-04-24T05:55:24;10.00;;;9.40;;
27977;SDS011;15314;49.248;6.968;2023-04-24T05:56:25;10.38;;;9.68;;
27977;SDS011;15314;49.248;6.968;2023-04-24T05:57:26;9.93;;;9.27;;
27977;SDS011;15314;49.248;6.968;2023-04-24T05:58:27;9.73;;;9.13;;
27977;SDS011;15314;49.248;6.968;2023-04-24T05:59:27;9.35;;;8.80;;
27977;SDS011;15314;49.248;6.968;2023-04-24T06:00:28;10.60;;;9.90;;
27977;SDS011;15314;49.248;6.968;2023-04-24T06:01:29;9.45;;;8.95;;
27977;SDS011;15314;49.248;6.968;2023-04-24T06:02:30;10.55;;;9.52;;
27977;SDS011;15314;49.248;6.968;2023-04-24T06:03:32;9.65;;;9.07;;
27977;SDS011;15314;49.248;6.968;2023-04-24T06:04:33;10.18;;;9.38;;